sensor_id;sensor_type;location;lat;lon;timestamp;temperature;humidity
43320;DHT22;28914;48.722;9.332;2023-04-10T00:04:04;7.60;59.70
43320;DHT22;28914;48.722;9.332;2023-04-10T00:09:23;7.50;59.80
43320;DHT22;28914;48.722;9.332;2023-04-10T00:14:43;7.50;59.80
43320;DHT22;28914;48.722;9.332;2023-04-10T00:20:02;7.40;60.00
43320;DHT22;28914;48.722;9.332;2023-04-10T00:25:23;7.30;60.20
43320;DHT22;28914;48.722;9.332;2023-04-10T00:30:42;7.30;60.60
43320;DHT22;28914;48.722;9.332;2023-04-10T00:36:01;7.20;60.70
43320;DHT22;28914;48.722;9.332;2023-04-10T00:41:20;7.10;61.00
43320;DHT22;28914;48.722;9.332;2023-04-10T00:46:41;7.00;61.00
43320;DHT22;28914;48.722;9.332;2023-04-10T00:52:01;7.00;61.20
43320;DHT22;28914;48.722;9.332;2023-04-10T00:57:20;6.90;61.20
43320;DHT22;28914;48.722;9.332;2023-04-10T01:02:39;6.90;61.70
43320;DHT22;28914;48.722;9.332;2023-04-10T01:08:01;6.80;61.80
43320;DHT22;28914;48.722;9.332;2023-04-10T01:13:34;6.70;62.00
43320;DHT22;28914;48.722;9.332;2023-04-10T01:19:04;6.70;62.20
43320;DHT22;28914;48.722;9.332;2023-04-10T01:25:04;6.60;62.60
43320;DHT22;28914;48.722;9.332;2023-04-10T01:30:28;6.60;63.10
43320;DHT22;28914;48.722;9.332;2023-04-10T01:35:52;6.50;62.70
43320;DHT22;28914;48.722;9.332;2023-04-10T01:41:13;6.50;63.10
43320;DHT22;28914;48.722;9.332;2023-04-10T01:46:33;6.40;63.10
43320;DHT22;28914;48.722;9.332;2023-04-10T01:51:54;6.30;63.10
43320;DHT22;28914;48.722;9.332;2023-04-10T01:57:16;6.30;63.60
43320;DHT22;28914;48.722;9.332;2023-04-10T02:02:36;6.20;64.10
43320;DHT22;28914;48.722;9.332;2023-04-10T02:08:21;6.10;64.90
43320;DHT22;28914;48.722;9.332;2023-04-10T02:13:42;6.10;65.20
43320;DHT22;28914;48.722;9.332;2023-04-10T02:19:02;6.00;66.20
43320;DHT22;28914;48.722;9.332;2023-04-10T02:24:22;6.00;68.50
43320;DHT22;28914;48.722;9.332;2023-04-10T02:29:41;5.90;70.00
43320;DHT22;28914;48.722;9.332;2023-04-10T02:35:01;5.80;69.90
43320;DHT22;28914;48.722;9.332;2023-04-10T02:40:21;5.80;70.10
43320;DHT22;28914;48.722;9.332;2023-04-10T02:45:40;5.70;68.70
43320;DHT22;28914;48.722;9.332;2023-04-10T02:50:59;5.70;68.00
43320;DHT22;28914;48.722;9.332;2023-04-10T02:56:19;5.70;67.60
43320;DHT22;28914;48.722;9.332;2023-04-10T03:01:38;5.70;67.30
43320;DHT22;28914;48.722;9.332;2023-04-10T03:06:58;5.60;67.20
43320;DHT22;28914;48.722;9.332;2023-04-10T03:12:17;5.60;67.10
43320;DHT22;28914;48.722;9.332;2023-04-10T03:17:37;5.50;67.00
43320;DHT22;28914;48.722;9.332;2023-04-10T03:22:56;5.50;67.10
43320;DHT22;28914;48.722;9.332;2023-04-10T03:28:15;5.50;67.10
43320;DHT22;28914;48.722;9.332;2023-04-10T03:33:34;5.40;67.10
43320;DHT22;28914;48.722;9.332;2023-04-10T03:38:54;5.40;67.90
43320;DHT22;28914;48.722;9.332;2023-04-10T03:44:13;5.30;68.30
43320;DHT22;28914;48.722;9.332;2023-04-10T03:49:32;5.30;69.10
43320;DHT22;28914;48.722;9.332;2023-04-10T03:54:55;5.30;68.60
43320;DHT22;28914;48.722;9.332;2023-04-10T04:00:15;5.20;68.30
43320;DHT22;28914;48.722;9.332;2023-04-10T04:05:34;5.20;68.20
43320;DHT22;28914;48.722;9.332;2023-04-10T04:10:53;5.20;68.10
43320;DHT22;28914;48.722;9.332;2023-04-10T04:16:12;5.20;68.30
43320;DHT22;28914;48.722;9.332;2023-04-10T04:21:32;5.20;68.10
43320;DHT22;28914;48.722;9.332;2023-04-10T04:26:51;5.20;68.30
43320;DHT22;28914;48.722;9.332;2023-04-10T04:32:11;5.20;68.80
43320;DHT22;28914;48.722;9.332;2023-04-10T04:37:30;5.20;68.90
43320;DHT22;28914;48.722;9.332;2023-04-10T04:42:49;5.20;68.80
43320;DHT22;28914;48.722;9.332;2023-04-10T04:48:08;5.20;68.90
43320;DHT22;28914;48.722;9.332;2023-04-10T04:53:27;5.20;69.10
43320;DHT22;28914;48.722;9.332;2023-04-10T04:58:47;5.20;69.00
43320;DHT22;28914;48.722;9.332;2023-04-10T05:04:06;5.20;69.80
43320;DHT22;28914;48.722;9.332;2023-04-10T05:09:25;5.30;69.10
43320;DHT22;28914;48.722;9.332;2023-04-10T05:14:45;5.30;69.80
43320;DHT22;28914;48.722;9.332;2023-04-10T05:20:04;5.40;70.60
43320;DHT22;28914;48.722;9.332;2023-04-10T05:25:24;5.50;70.70
43320;DHT22;28914;48.722;9.332;2023-04-10T05:30:43;5.60;70.40
43320;DHT22;28914;48.722;9.332;2023-04-10T05:36:03;5.80;70.50
43320;DHT22;28914;48.722;9.332;2023-04-10T05:41:23;6.00;70.50
43320;DHT22;28914;48.722;9.332;2023-04-10T05:46:42;6.20;70.30
43320;DHT22;28914;48.722;9.332;2023-04-10T05:52:01;6.40;70.30
43320;DHT22;28914;48.722;9.332;2023-04-10T05:57:20;6.60;70.50
43320;DHT22;28914;48.722;9.332;2023-04-10T06:02:40;6.90;70.50
43320;DHT22;28914;48.722;9.332;2023-04-10T06:07:59;7.20;70.40
43320;DHT22;28914;48.722;9.332;2023-04-10T06:13:18;7.50;70.60
43320;DHT22;28914;48.722;9.332;2023-04-10T06:18:37;7.80;70.40
43320;DHT22;28914;48.722;9.332;2023-04-10T06:23:56;8.20;70.00
43320;DHT22;28914;48.722;9.332;2023-04-10T06:29:15;8.50;69.70
43320;DHT22;28914;48.722;9.332;2023-04-10T06:34:35;8.90;69.10
43320;DHT22;28914;48.722;9.332;2023-04-10T06:40:08;9.20;68.60
43320;DHT22;28914;48.722;9.332;2023-04-10T06:45:27;9.50;68.20
43320;DHT22;28914;48.722;9.332;2023-04-10T06:50:47;9.90;67.90
43320;DHT22;28914;48.722;9.332;2023-04-10T06:56:06;10.20;67.60
43320;DHT22;28914;48.722;9.332;2023-04-10T07:01:26;10.50;67.20
43320;DHT22;28914;48.722;9.332;2023-04-10T07:06:45;10.80;66.90
43320;DHT22;28914;48.722;9.332;2023-04-10T07:12:04;11.00;66.40
43320;DHT22;28914;48.722;9.332;2023-04-10T07:17:24;11.40;65.00
43320;DHT22;28914;48.722;9.332;2023-04-10T07:22:43;11.70;63.80
43320;DHT22;28914;48.722;9.332;2023-04-10T07:28:02;12.10;63.10
43320;DHT22;28914;48.722;9.332;2023-04-10T07:33:21;12.50;62.40
43320;DHT22;28914;48.722;9.332;2023-04-10T07:38:41;13.00;60.60
43320;DHT22;28914;48.722;9.332;2023-04-10T07:44:00;13.60;58.50
43320;DHT22;28914;48.722;9.332;2023-04-10T07:49:19;14.00;56.20
43320;DHT22;28914;48.722;9.332;2023-04-10T07:54:39;14.60;55.90
43320;DHT22;28914;48.722;9.332;2023-04-10T07:59:58;15.40;55.30
43320;DHT22;28914;48.722;9.332;2023-04-10T08:05:18;16.40;52.40
43320;DHT22;28914;48.722;9.332;2023-04-10T08:10:37;17.90;52.60
43320;DHT22;28914;48.722;9.332;2023-04-10T08:15:57;19.80;50.40
43320;DHT22;28914;48.722;9.332;2023-04-10T08:21:16;21.90;45.10
43320;DHT22;28914;48.722;9.332;2023-04-10T08:26:35;23.70;41.10
43320;DHT22;28914;48.722;9.332;2023-04-10T08:31:54;25.00;37.40
43320;DHT22;28914;48.722;9.332;2023-04-10T08:37:14;25.90;34.20
43320;DHT22;28914;48.722;9.332;2023-04-10T08:42:34;26.60;34.20
43320;DHT22;28914;48.722;9.332;2023-04-10T08:47:57;27.10;32.90
43320;DHT22;28914;48.722;9.332;2023-04-10T08:53:19;27.30;31.00
43320;DHT22;28914;48.722;9.332;2023-04-10T08:58:41;27.40;30.80
43320;DHT22;28914;48.722;9.332;2023-04-10T09:04:02;27.80;30.60
43320;DHT22;28914;48.722;9.332;2023-04-10T09:09:21;28.50;32.30
43320;DHT22;28914;48.722;9.332;2023-04-10T09:14:41;29.70;30.60
43320;DHT22;28914;48.722;9.332;2023-04-10T09:20:00;30.60;29.70
43320;DHT22;28914;48.722;9.332;2023-04-10T09:25:37;31.00;26.70
43320;DHT22;28914;48.722;9.332;2023-04-10T09:30:57;31.80;29.10
43320;DHT22;28914;48.722;9.332;2023-04-10T09:36:16;33.10;29.00
43320;DHT22;28914;48.722;9.332;2023-04-10T09:41:50;34.00;25.60
43320;DHT22;28914;48.722;9.332;2023-04-10T09:52:33;34.40;24.70
43320;DHT22;28914;48.722;9.332;2023-04-10T09:57:53;34.70;25.60
43320;DHT22;28914;48.722;9.332;2023-04-10T10:03:14;35.30;25.10
43320;DHT22;28914;48.722;9.332;2023-04-10T10:08:34;35.80;24.00
43320;DHT22;28914;48.722;9.332;2023-04-10T10:13:54;36.20;24.00
43320;DHT22;28914;48.722;9.332;2023-04-10T10:19:37;36.60;23.00
43320;DHT22;28914;48.722;9.332;2023-04-10T10:24:59;37.10;24.30
43320;DHT22;28914;48.722;9.332;2023-04-10T10:30:20;37.60;22.30
43320;DHT22;28914;48.722;9.332;2023-04-10T10:35:40;38.00;23.40
43320;DHT22;28914;48.722;9.332;2023-04-10T10:41:09;38.60;23.60
43320;DHT22;28914;48.722;9.332;2023-04-10T10:46:46;39.10;21.60
43320;DHT22;28914;48.722;9.332;2023-04-10T10:52:06;39.20;22.00
43320;DHT22;28914;48.722;9.332;2023-04-10T10:57:44;39.00;22.70
43320;DHT22;28914;48.722;9.332;2023-04-10T11:19:14;36.00;21.20
43320;DHT22;28914;48.722;9.332;2023-04-10T11:24:51;35.10;21.90
43320;DHT22;28914;48.722;9.332;2023-04-10T11:30:32;34.50;22.30
43320;DHT22;28914;48.722;9.332;2023-04-10T11:35:52;34.90;21.80
43320;DHT22;28914;48.722;9.332;2023-04-10T11:41:11;35.00;21.40
43320;DHT22;28914;48.722;9.332;2023-04-10T11:46:30;34.90;20.00
43320;DHT22;28914;48.722;9.332;2023-04-10T11:51:50;34.30;20.00
43320;DHT22;28914;48.722;9.332;2023-04-10T11:57:10;33.40;20.90
43320;DHT22;28914;48.722;9.332;2023-04-10T12:02:30;32.20;21.10
43320;DHT22;28914;48.722;9.332;2023-04-10T12:07:49;30.80;21.10
43320;DHT22;28914;48.722;9.332;2023-04-10T12:13:26;29.40;21.20
43320;DHT22;28914;48.722;9.332;2023-04-10T12:18:46;28.30;22.10
43320;DHT22;28914;48.722;9.332;2023-04-10T12:24:06;27.40;23.00
43320;DHT22;28914;48.722;9.332;2023-04-10T12:29:25;26.40;23.00
43320;DHT22;28914;48.722;9.332;2023-04-10T12:34:49;25.60;24.00
43320;DHT22;28914;48.722;9.332;2023-04-10T12:40:10;25.20;24.30
43320;DHT22;28914;48.722;9.332;2023-04-10T12:45:42;24.80;24.60
43320;DHT22;28914;48.722;9.332;2023-04-10T12:51:01;24.50;25.10
43320;DHT22;28914;48.722;9.332;2023-04-10T12:56:22;24.20;24.60
43320;DHT22;28914;48.722;9.332;2023-04-10T13:01:43;23.90;25.20
43320;DHT22;28914;48.722;9.332;2023-04-10T13:07:02;23.70;25.60
43320;DHT22;28914;48.722;9.332;2023-04-10T13:12:21;23.60;26.20
43320;DHT22;28914;48.722;9.332;2023-04-10T13:17:41;23.60;26.40
43320;DHT22;28914;48.722;9.332;2023-04-10T13:23:00;23.70;26.40
43320;DHT22;28914;48.722;9.332;2023-04-10T13:28:22;23.80;26.40
43320;DHT22;28914;48.722;9.332;2023-04-10T13:33:44;23.80;26.10
43320;DHT22;28914;48.722;9.332;2023-04-10T13:39:05;23.80;26.40
43320;DHT22;28914;48.722;9.332;2023-04-10T13:44:25;23.90;26.80
43320;DHT22;28914;48.722;9.332;2023-04-10T13:49:44;23.90;27.00
43320;DHT22;28914;48.722;9.332;2023-04-10T13:55:03;23.90;26.70
43320;DHT22;28914;48.722;9.332;2023-04-10T14:00:22;24.10;26.90
43320;DHT22;28914;48.722;9.332;2023-04-10T14:05:42;24.20;26.80
43320;DHT22;28914;48.722;9.332;2023-04-10T14:11:01;24.20;26.50
43320;DHT22;28914;48.722;9.332;2023-04-10T14:16:20;24.20;26.80
43320;DHT22;28914;48.722;9.332;2023-04-10T14:21:39;24.30;27.00
43320;DHT22;28914;48.722;9.332;2023-04-10T14:27:01;24.30;26.90
43320;DHT22;28914;48.722;9.332;2023-04-10T14:32:21;24.30;26.50
43320;DHT22;28914;48.722;9.332;2023-04-10T14:37:40;24.30;26.80
43320;DHT22;28914;48.722;9.332;2023-04-10T14:42:59;24.30;26.70
43320;DHT22;28914;48.722;9.332;2023-04-10T14:48:18;24.10;26.60
43320;DHT22;28914;48.722;9.332;2023-04-10T14:53:39;24.00;26.80
43320;DHT22;28914;48.722;9.332;2023-04-10T14:58:58;24.00;26.90
43320;DHT22;28914;48.722;9.332;2023-04-10T15:04:17;23.90;26.50
43320;DHT22;28914;48.722;9.332;2023-04-10T15:09:36;23.80;26.70
43320;DHT22;28914;48.722;9.332;2023-04-10T15:14:55;23.60;26.70
43320;DHT22;28914;48.722;9.332;2023-04-10T15:20:15;23.40;27.00
43320;DHT22;28914;48.722;9.332;2023-04-10T15:25:34;23.30;27.40
43320;DHT22;28914;48.722;9.332;2023-04-10T15:30:53;23.00;27.80
43320;DHT22;28914;48.722;9.332;2023-04-10T15:36:13;23.00;28.30
43320;DHT22;28914;48.722;9.332;2023-04-10T15:41:32;22.90;28.50
43320;DHT22;28914;48.722;9.332;2023-04-10T15:46:51;22.70;28.60
43320;DHT22;28914;48.722;9.332;2023-04-10T15:52:13;22.60;28.80
43320;DHT22;28914;48.722;9.332;2023-04-10T15:57:32;22.60;29.10
43320;DHT22;28914;48.722;9.332;2023-04-10T16:02:52;22.40;29.30
43320;DHT22;28914;48.722;9.332;2023-04-10T16:08:11;22.40;29.60
43320;DHT22;28914;48.722;9.332;2023-04-10T16:13:30;22.40;30.20
43320;DHT22;28914;48.722;9.332;2023-04-10T16:18:49;22.40;30.00
43320;DHT22;28914;48.722;9.332;2023-04-10T16:24:12;22.30;30.10
43320;DHT22;28914;48.722;9.332;2023-04-10T16:29:31;22.30;30.30
43320;DHT22;28914;48.722;9.332;2023-04-10T16:34:50;22.20;30.40
43320;DHT22;28914;48.722;9.332;2023-04-10T16:40:09;22.00;30.50
43320;DHT22;28914;48.722;9.332;2023-04-10T16:45:30;21.80;31.20
43320;DHT22;28914;48.722;9.332;2023-04-10T16:50:49;21.70;31.40
43320;DHT22;28914;48.722;9.332;2023-04-10T16:56:09;21.50;31.80
43320;DHT22;28914;48.722;9.332;2023-04-10T17:01:28;21.40;32.20
43320;DHT22;28914;48.722;9.332;2023-04-10T17:06:47;21.30;32.40
43320;DHT22;28914;48.722;9.332;2023-04-10T17:12:07;21.10;32.80
43320;DHT22;28914;48.722;9.332;2023-04-10T17:17:26;21.00;32.60
43320;DHT22;28914;48.722;9.332;2023-04-10T17:22:45;20.80;32.80
43320;DHT22;28914;48.722;9.332;2023-04-10T17:28:05;20.70;33.10
43320;DHT22;28914;48.722;9.332;2023-04-10T17:33:24;20.60;33.70
43320;DHT22;28914;48.722;9.332;2023-04-10T17:38:43;20.40;34.00
43320;DHT22;28914;48.722;9.332;2023-04-10T17:44:02;20.30;34.20
43320;DHT22;28914;48.722;9.332;2023-04-10T17:49:23;20.20;34.80
43320;DHT22;28914;48.722;9.332;2023-04-10T17:54:43;20.00;34.80
43320;DHT22;28914;48.722;9.332;2023-04-10T18:00:06;19.90;35.30
43320;DHT22;28914;48.722;9.332;2023-04-10T18:05:29;19.70;35.90
43320;DHT22;28914;48.722;9.332;2023-04-10T18:10:48;19.60;36.20
43320;DHT22;28914;48.722;9.332;2023-04-10T18:16:08;19.40;36.30
43320;DHT22;28914;48.722;9.332;2023-04-10T18:21:29;19.20;36.80
43320;DHT22;28914;48.722;9.332;2023-04-10T18:26:49;19.10;37.30
43320;DHT22;28914;48.722;9.332;2023-04-10T18:32:08;18.90;37.20
43320;DHT22;28914;48.722;9.332;2023-04-10T18:37:27;18.80;37.60
43320;DHT22;28914;48.722;9.332;2023-04-10T18:42:46;18.60;37.80
43320;DHT22;28914;48.722;9.332;2023-04-10T18:48:05;18.50;37.70
43320;DHT22;28914;48.722;9.332;2023-04-10T18:53:25;18.40;38.00
43320;DHT22;28914;48.722;9.332;2023-04-10T18:58:44;18.20;38.50
43320;DHT22;28914;48.722;9.332;2023-04-10T19:04:03;18.20;39.20
43320;DHT22;28914;48.722;9.332;2023-04-10T19:09:22;18.10;40.10
43320;DHT22;28914;48.722;9.332;2023-04-10T19:14:42;17.90;39.80
43320;DHT22;28914;48.722;9.332;2023-04-10T19:20:00;17.80;39.90
43320;DHT22;28914;48.722;9.332;2023-04-10T19:25:20;17.70;40.20
43320;DHT22;28914;48.722;9.332;2023-04-10T19:30:39;17.70;40.40
43320;DHT22;28914;48.722;9.332;2023-04-10T19:35:59;17.60;40.90
43320;DHT22;28914;48.722;9.332;2023-04-10T19:41:18;17.50;40.90
43320;DHT22;28914;48.722;9.332;2023-04-10T19:46:38;17.40;41.00
43320;DHT22;28914;48.722;9.332;2023-04-10T19:51:57;17.30;41.40
43320;DHT22;28914;48.722;9.332;2023-04-10T19:57:16;17.20;41.70
43320;DHT22;28914;48.722;9.332;2023-04-10T20:02:35;17.20;42.40
43320;DHT22;28914;48.722;9.332;2023-04-10T20:07:54;17.10;42.50
43320;DHT22;28914;48.722;9.332;2023-04-10T20:13:14;17.00;42.30
43320;DHT22;28914;48.722;9.332;2023-04-10T20:18:34;17.00;42.20
43320;DHT22;28914;48.722;9.332;2023-04-10T20:23:53;16.90;42.60
43320;DHT22;28914;48.722;9.332;2023-04-10T20:29:15;16.90;42.80
43320;DHT22;28914;48.722;9.332;2023-04-10T20:34:35;16.80;43.50
43320;DHT22;28914;48.722;9.332;2023-04-10T20:39:54;16.70;43.20
43320;DHT22;28914;48.722;9.332;2023-04-10T20:45:13;16.70;43.20
43320;DHT22;28914;48.722;9.332;2023-04-10T20:50:33;16.60;43.20
43320;DHT22;28914;48.722;9.332;2023-04-10T20:55:52;16.50;43.40
43320;DHT22;28914;48.722;9.332;2023-04-10T21:01:14;16.50;43.80
43320;DHT22;28914;48.722;9.332;2023-04-10T21:06:33;16.50;43.90
43320;DHT22;28914;48.722;9.332;2023-04-10T21:11:53;16.40;44.00
43320;DHT22;28914;48.722;9.332;2023-04-10T21:17:13;16.40;44.30
43320;DHT22;28914;48.722;9.332;2023-04-10T21:22:33;16.40;44.40
43320;DHT22;28914;48.722;9.332;2023-04-10T21:27:52;16.50;44.50
43320;DHT22;28914;48.722;9.332;2023-04-10T21:33:12;16.30;45.10
43320;DHT22;28914;48.722;9.332;2023-04-10T21:38:31;16.30;45.10
43320;DHT22;28914;48.722;9.332;2023-04-10T21:43:50;16.30;45.60
43320;DHT22;28914;48.722;9.332;2023-04-10T21:49:10;16.30;45.90
43320;DHT22;28914;48.722;9.332;2023-04-10T21:54:30;16.30;46.20
43320;DHT22;28914;48.722;9.332;2023-04-10T21:59:49;16.20;46.60
43320;DHT22;28914;48.722;9.332;2023-04-10T22:05:09;16.20;47.00
43320;DHT22;28914;48.722;9.332;2023-04-10T22:10:29;16.20;47.40
43320;DHT22;28914;48.722;9.332;2023-04-10T22:15:48;16.10;47.80
43320;DHT22;28914;48.722;9.332;2023-04-10T22:21:08;16.10;48.30
43320;DHT22;28914;48.722;9.332;2023-04-10T22:26:27;16.10;48.20
43320;DHT22;28914;48.722;9.332;2023-04-10T22:31:46;16.10;48.10
43320;DHT22;28914;48.722;9.332;2023-04-10T22:37:05;16.10;48.20
43320;DHT22;28914;48.722;9.332;2023-04-10T22:42:26;16.10;48.70
43320;DHT22;28914;48.722;9.332;2023-04-10T22:47:45;16.10;48.70
43320;DHT22;28914;48.722;9.332;2023-04-10T22:53:05;16.10;49.10
43320;DHT22;28914;48.722;9.332;2023-04-10T22:58:24;16.10;49.40
43320;DHT22;28914;48.722;9.332;2023-04-10T23:03:43;16.10;49.60
43320;DHT22;28914;48.722;9.332;2023-04-10T23:09:03;16.10;49.40
43320;DHT22;28914;48.722;9.332;2023-04-10T23:14:22;16.00;49.70
43320;DHT22;28914;48.722;9.332;2023-04-10T23:19:41;15.90;49.60
43320;DHT22;28914;48.722;9.332;2023-04-10T23:25:01;15.80;50.10
43320;DHT22;28914;48.722;9.332;2023-04-10T23:30:20;15.80;49.60
43320;DHT22;28914;48.722;9.332;2023-04-10T23:35:39;15.80;49.80
43320;DHT22;28914;48.722;9.332;2023-04-10T23:40:59;15.70;50.40
43320;DHT22;28914;48.722;9.332;2023-04-10T23:46:18;15.80;50.90
43320;DHT22;28914;48.722;9.332;2023-04-10T23:51:37;15.80;50.30
43320;DHT22;28914;48.722;9.332;2023-04-10T23:56:57;15.90;50.10
